Time;durP1;ratioP1;P1;durP2;ratioP2;P2;SDS_P1;SDS_P2;PMS_P1;PMS_P2;Temp;Humidity;BMP_temperature;BMP_pressure;BME280_temperature;BME280_humidity;BME280_pressure;Samples;Min_cycle;Max_cycle;Signal;HPM_P1;HPM_P2
2022/04/02 00:01:22;;;;;;;0.20;0.20;;;2.10;99.90;;;2.03;nan;99765.44;5031206;28;20206;-70
2022/04/02 00:03:50;;;;;;;0.20;0.20;;;2.10;99.90;;;1.95;nan;99783.00;4999108;28;20218;-69
2022/04/02 00:06:17;;;;;;;0.20;0.20;;;2.10;99.90;;;2.03;nan;99774.88;5030746;28;20237;-69
2022/04/02 00:08:44;;;;;;;0.55;0.55;;;2.10;99.90;;;1.96;nan;99776.94;4998784;28;20198;-69
2022/04/02 00:11:11;;;;;;;0.20;0.20;;;2.10;99.90;;;1.91;nan;99789.22;5014112;28;20199;-69
2022/04/02 00:13:38;;;;;;;0.20;0.20;;;2.00;99.90;;;1.92;nan;99775.41;4996906;28;20317;-69
2022/04/02 00:16:07;;;;;;;0.20;0.20;;;2.10;99.90;;;1.98;nan;99769.16;5031331;28;20221;-69
2022/04/02 00:18:34;;;;;;;0.20;0.20;;;2.10;99.90;;;1.94;nan;99771.03;5031237;28;20216;-69
2022/04/02 00:21:01;;;;;;;0.20;0.20;;;2.10;99.90;;;1.95;nan;99770.13;5010175;28;20215;-70
2022/04/02 00:23:40;;;;;;;0.20;0.20;;;2.00;99.90;;;1.97;nan;99772.63;4995286;28;20215;-69
2022/04/02 00:26:16;;;;;;;0.20;0.20;;;2.00;99.90;;;1.98;nan;99776.88;5010318;28;20222;-69
2022/04/02 00:28:44;;;;;;;0.30;0.30;;;2.10;99.90;;;1.99;nan;99771.66;5012863;28;20202;-69
2022/04/02 00:31:15;;;;;;;0.20;0.20;;;2.10;99.90;;;2.01;nan;99774.13;4997079;28;20197;-68
2022/04/02 00:33:45;;;;;;;0.20;0.20;;;2.10;99.90;;;1.96;nan;99770.97;5030705;28;20786;-69
2022/04/02 00:36:15;;;;;;;0.20;0.20;;;2.10;99.90;;;1.93;nan;99778.84;5011764;28;20450;-69
2022/04/02 00:38:42;;;;;;;0.20;0.20;;;2.00;99.90;;;2.04;nan;99773.97;5030863;28;20201;-69
2022/04/02 00:41:10;;;;;;;0.20;0.20;;;2.10;99.90;;;1.92;nan;99778.00;5013850;28;20674;-69
2022/04/02 00:43:41;;;;;;;0.20;0.20;;;2.10;99.90;;;1.96;nan;99770.97;5014520;28;20388;-69
2022/04/02 00:46:11;;;;;;;0.20;0.20;;;2.10;99.90;;;2.00;nan;99780.19;5013566;28;20292;-70
2022/04/02 00:48:41;;;;;;;0.20;0.20;;;2.10;99.90;;;1.96;nan;99771.78;5011857;28;20575;-67
2022/04/02 00:51:13;;;;;;;0.20;0.20;;;2.00;99.90;;;1.99;nan;99789.66;5027585;28;20205;-68
2022/04/02 00:53:44;;;;;;;0.20;0.20;;;2.10;99.90;;;1.97;nan;99775.19;5020543;28;20241;-70
2022/04/02 00:56:13;;;;;;;0.20;0.20;;;2.00;99.90;;;2.03;nan;99767.16;5012144;28;20706;-69
2022/04/02 00:58:41;;;;;;;0.20;0.20;;;2.10;99.90;;;2.04;nan;99779.97;5012582;28;20751;-71
2022/04/02 01:01:08;;;;;;;0.20;0.20;;;2.10;99.90;;;1.98;nan;99769.16;5012518;28;20198;-69
2022/04/02 01:03:36;;;;;;;0.20;0.20;;;2.10;99.90;;;2.01;nan;99766.41;5010151;28;20241;-70
2022/04/02 01:06:04;;;;;;;0.20;0.20;;;2.10;99.90;;;1.90;nan;99764.38;4996367;28;20233;-70
2022/04/02 01:08:31;;;;;;;0.20;0.20;;;2.00;99.90;;;1.98;nan;99772.53;5030503;28;20217;-69
2022/04/02 01:10:58;;;;;;;0.20;0.20;;;2.00;99.90;;;1.98;nan;99767.38;5012770;28;20244;-69
2022/04/02 01:13:27;;;;;;;0.20;0.20;;;2.00;99.90;;;2.02;nan;99765.50;5029536;28;20606;-69
2022/04/02 01:15:56;;;;;;;0.20;0.20;;;2.10;99.90;;;1.91;nan;99758.34;5013832;28;20706;-69
2022/04/02 01:18:24;;;;;;;0.20;0.20;;;2.10;99.90;;;1.93;nan;99768.53;5029959;28;20671;-70
2022/04/02 01:20:53;;;;;;;0.20;0.20;;;2.00;99.90;;;1.89;nan;99775.59;5009537;28;20199;-69
2022/04/02 01:23:28;;;;;;;0.20;0.20;;;2.00;99.90;;;2.02;nan;99760.38;5012300;28;20202;-69
2022/04/02 01:26:00;;;;;;;0.20;0.20;;;2.10;99.90;;;1.88;nan;99786.78;5010151;28;20238;-70
2022/04/02 01:28:33;;;;;;;0.20;0.20;;;2.00;99.90;;;1.86;nan;99772.31;4993257;28;20686;-70
2022/04/02 01:31:05;;;;;;;0.20;0.20;;;2.00;99.90;;;1.89;nan;99769.63;4992763;28;20209;-70
2022/04/02 01:33:33;;;;;;;0.20;0.20;;;2.00;99.90;;;1.85;nan;99779.22;4993091;28;20233;-70
2022/04/02 01:36:06;;;;;;;0.20;0.20;;;2.00;99.90;;;1.85;nan;99789.53;4994753;28;20705;-70
2022/04/02 01:38:33;;;;;;;0.20;0.20;;;2.00;99.90;;;1.83;nan;99785.34;5012441;28;20665;-69
2022/04/02 01:41:00;;;;;;;0.20;0.20;;;1.90;99.90;;;1.83;nan;99783.59;4996177;28;20202;-70
2022/04/02 01:43:27;;;;;;;0.20;0.20;;;1.90;99.90;;;1.85;nan;99793.81;5012019;28;20213;-70
2022/04/02 01:45:58;;;;;;;0.20;0.20;;;1.90;99.90;;;1.92;nan;99806.28;5011356;28;20236;-69
2022/04/02 01:48:26;;;;;;;0.20;0.20;;;2.00;99.90;;;1.81;nan;99777.69;5030590;28;20635;-69
2022/04/02 01:50:53;;;;;;;0.20;0.20;;;2.00;99.90;;;1.81;nan;99792.31;4995434;28;20202;-69
2022/04/02 01:53:22;;;;;;;0.20;0.20;;;1.90;99.90;;;1.82;nan;99786.25;4987921;28;20226;-69
2022/04/02 01:55:50;;;;;;;0.20;0.20;;;1.90;99.90;;;1.87;nan;99797.16;4994479;28;20223;-69
2022/04/02 01:58:17;;;;;;;0.20;0.20;;;2.00;99.90;;;1.86;nan;99805.75;4985091;28;20205;-69
2022/04/02 02:00:46;;;;;;;0.20;0.20;;;2.00;99.90;;;1.85;nan;99806.69;5032176;28;20197;-69
2022/04/02 02:03:13;;;;;;;0.20;0.20;;;2.00;99.90;;;1.80;nan;99799.19;5012910;28;20211;-69
2022/04/02 02:05:41;;;;;;;0.20;0.20;;;2.00;99.90;;;1.78;nan;99810.44;5012945;28;20226;-69
2022/04/02 02:08:08;;;;;;;0.20;0.20;;;1.90;99.90;;;1.85;nan;99809.25;4994773;28;20203;-69
2022/04/02 02:10:36;;;;;;;0.20;0.20;;;1.90;99.90;;;1.93;nan;99799.41;5015658;28;20213;-69
2022/04/02 02:13:04;;;;;;;0.20;0.20;;;2.00;99.90;;;1.78;nan;99808.72;5011524;28;20229;-70
2022/04/02 02:15:31;;;;;;;0.20;0.20;;;2.00;99.90;;;1.84;nan;99829.00;5031999;28;20218;-70
2022/04/02 02:17:58;;;;;;;0.20;0.20;;;1.90;99.90;;;1.88;nan;99797.06;5010743;28;20210;-68
2022/04/02 02:20:25;;;;;;;0.20;0.20;;;2.00;99.90;;;1.85;nan;99814.41;5012781;28;20501;-70
2022/04/02 02:22:52;;;;;;;0.20;0.20;;;2.00;99.90;;;1.77;nan;99811.38;5011731;28;20666;-70
2022/04/02 02:25:19;;;;;;;0.20;0.20;;;1.90;99.90;;;1.81;nan;99816.28;5030105;28;20222;-69
2022/04/02 02:27:47;;;;;;;0.20;0.20;;;1.90;99.90;;;1.77;nan;99816.53;5033107;28;20202;-69
2022/04/02 02:30:16;;;;;;;0.20;0.20;;;1.90;99.90;;;1.76;nan;99815.69;5004331;28;20697;-70
2022/04/02 02:32:44;;;;;;;0.20;0.20;;;2.00;99.90;;;1.72;nan;99814.16;4998964;28;20654;-69
2022/04/02 02:38:08;;;;;;;0.20;0.20;;;1.90;99.90;;;1.70;nan;99810.84;5017152;28;20213;-69
2022/04/02 02:40:38;;;;;;;0.20;0.20;;;1.90;99.90;;;1.83;nan;99813.66;5014669;28;20209;-70
2022/04/02 02:43:06;;;;;;;0.20;0.20;;;1.90;99.90;;;1.73;nan;99822.69;5012797;28;20662;-69
2022/04/02 02:45:34;;;;;;;0.20;0.20;;;1.90;99.90;;;1.88;nan;99819.38;5014990;28;20566;-69
2022/04/02 02:48:03;;;;;;;0.20;0.20;;;2.00;99.90;;;1.80;nan;99832.63;5016751;28;20743;-69
2022/04/02 02:50:33;;;;;;;0.20;0.20;;;1.90;99.90;;;1.77;nan;99817.34;5016774;28;20209;-67
2022/04/02 02:53:00;;;;;;;0.20;0.20;;;1.90;99.90;;;1.77;nan;99837.09;4995598;28;20702;-68
2022/04/02 02:55:28;;;;;;;0.20;0.20;;;1.90;99.90;;;1.84;nan;99834.13;5011564;28;20276;-68
2022/04/02 02:57:56;;;;;;;0.20;0.20;;;1.90;99.90;;;1.84;nan;99833.28;5013991;28;20202;-68
2022/04/02 03:00:23;;;;;;;0.20;0.20;;;2.00;99.90;;;1.82;nan;99837.69;4982410;28;20218;-68
2022/04/02 03:02:50;;;;;;;0.20;0.20;;;1.90;99.90;;;1.68;nan;99845.25;5014857;28;20582;-68
2022/04/02 03:05:17;;;;;;;0.20;0.20;;;1.80;99.90;;;1.63;nan;99845.47;5011758;28;20273;-68
2022/04/02 03:07:50;;;;;;;0.20;0.20;;;1.80;99.90;;;1.77;nan;99844.81;5014658;28;20204;-68
2022/04/02 03:10:23;;;;;;;0.20;0.20;;;1.80;99.90;;;1.76;nan;99853.41;5011462;28;20207;-68
2022/04/02 03:12:51;;;;;;;0.20;0.20;;;1.90;99.90;;;1.72;nan;99857.03;5014664;28;20198;-68
2022/04/02 03:15:19;;;;;;;0.20;0.20;;;1.80;99.90;;;1.71;nan;99873.38;5015821;28;20229;-68
2022/04/02 03:17:48;;;;;;;0.20;0.20;;;1.80;99.90;;;1.68;nan;99863.25;5010672;28;20202;-68
2022/04/02 03:20:17;;;;;;;0.20;0.20;;;1.80;99.90;;;1.68;nan;99858.09;5010476;28;20207;-68
2022/04/02 03:22:46;;;;;;;0.20;0.20;;;1.80;99.90;;;1.77;nan;99861.06;5031431;28;20221;-68
2022/04/02 03:25:16;;;;;;;0.20;0.20;;;1.80;99.90;;;1.80;nan;99862.66;5011715;28;20225;-69
2022/04/02 03:27:44;;;;;;;0.20;0.20;;;1.90;99.90;;;1.62;nan;99855.84;4995066;28;20198;-68
2022/04/02 03:30:14;;;;;;;0.20;0.20;;;1.80;99.90;;;1.58;nan;99862.03;4996308;28;20205;-68
2022/04/02 03:32:42;;;;;;;0.20;0.20;;;1.70;99.90;;;1.60;nan;99862.78;5012470;28;20675;-68
2022/04/02 03:35:10;;;;;;;11.23;3.22;;;1.80;99.90;;;1.55;nan;99858.66;4996316;28;20210;-69
2022/04/02 03:37:38;;;;;;;0.20;0.20;;;1.70;99.90;;;1.58;nan;99868.81;5005468;28;20211;-69
2022/04/02 03:40:08;;;;;;;0.20;0.20;;;1.70;99.90;;;1.62;nan;99872.06;5011080;28;20199;-69
2022/04/02 03:42:36;;;;;;;0.20;0.20;;;1.70;99.90;;;1.68;nan;99868.38;5014401;28;20610;-68
2022/04/02 03:45:06;;;;;;;0.20;0.20;;;1.80;99.90;;;1.67;nan;99877.00;4998873;28;20202;-68
2022/04/02 03:47:33;;;;;;;0.20;0.20;;;1.80;99.90;;;1.63;nan;99866.03;4995109;28;20207;-69
2022/04/02 03:50:00;;;;;;;0.20;0.20;;;1.80;99.90;;;1.60;nan;99871.31;5031564;28;20214;-68
2022/04/02 03:52:27;;;;;;;0.20;0.20;;;1.70;99.90;;;1.54;nan;99877.59;4990299;28;20218;-68
2022/04/02 03:54:54;;;;;;;0.20;0.20;;;1.70;99.90;;;1.58;nan;99873.97;5013707;28;20228;-68
2022/04/02 03:57:21;;;;;;;0.20;0.20;;;1.70;99.90;;;1.53;nan;99869.94;5013532;28;20198;-68
2022/04/02 03:59:48;;;;;;;0.20;0.20;;;1.70;99.90;;;1.58;nan;99882.59;5022211;28;20202;-67
2022/04/02 04:02:16;;;;;;;0.20;0.20;;;1.70;99.90;;;1.58;nan;99883.41;5013700;28;20201;-67
2022/04/02 04:04:43;;;;;;;0.20;0.20;;;1.70;99.90;;;1.54;nan;99887.88;5009530;28;20214;-68
2022/04/02 04:07:10;;;;;;;0.20;0.20;;;1.70;99.90;;;1.50;nan;99896.63;5030199;28;20229;-68
2022/04/02 04:09:37;;;;;;;0.20;0.20;;;1.60;99.90;;;1.53;nan;99890.53;4997211;28;20639;-68
2022/04/02 04:12:05;;;;;;;0.20;0.20;;;1.60;99.90;;;1.44;nan;99894.34;4994716;28;20677;-66
2022/04/02 04:14:32;;;;;;;0.20;0.20;;;1.60;99.90;;;1.51;nan;99898.28;4997367;28;20230;-68
2022/04/02 04:16:59;;;;;;;0.20;0.20;;;1.60;99.90;;;1.43;nan;99897.81;4996838;28;20225;-67
2022/04/02 04:19:26;;;;;;;0.20;0.20;;;1.60;99.90;;;1.40;nan;99889.41;5011185;28;20476;-68
2022/04/02 04:21:56;;;;;;;0.20;0.20;;;1.60;99.90;;;1.49;nan;99904.44;5019055;28;20199;-68
2022/04/02 04:24:23;;;;;;;0.20;0.20;;;1.60;99.90;;;1.42;nan;99910.75;5009407;28;20225;-68
2022/04/02 04:26:50;;;;;;;0.20;0.20;;;1.50;99.90;;;1.44;nan;99901.22;5031297;28;20606;-68
2022/04/02 04:29:17;;;;;;;0.20;0.20;;;1.60;99.90;;;1.51;nan;99911.13;5029905;28;20221;-68
2022/04/02 04:31:44;;;;;;;0.20;0.20;;;1.60;99.90;;;1.46;nan;99922.53;5012223;28;20474;-68
2022/04/02 04:34:11;;;;;;;0.20;0.20;;;1.60;99.90;;;1.47;nan;99930.19;5012713;28;20234;-67
2022/04/02 04:36:38;;;;;;;0.20;0.20;;;1.60;99.90;;;1.44;nan;99925.19;5030645;28;20221;-68
2022/04/02 04:39:06;;;;;;;0.20;0.20;;;1.60;99.90;;;1.38;nan;99906.66;5028879;28;20191;-67
2022/04/02 04:41:33;;;;;;;0.20;0.20;;;1.50;99.90;;;1.39;nan;99928.88;5030148;28;20206;-68
2022/04/02 04:44:00;;;;;;;0.20;0.20;;;1.60;99.90;;;1.47;nan;99932.75;5010150;28;20198;-68
2022/04/02 04:46:28;;;;;;;0.20;0.20;;;1.60;99.90;;;1.49;nan;99930.94;5011483;28;20233;-68
2022/04/02 04:48:55;;;;;;;0.20;0.20;;;1.60;99.90;;;1.51;nan;99918.84;5029295;28;20206;-68
2022/04/02 04:51:26;;;;;;;0.20;0.20;;;1.70;99.90;;;1.54;nan;99923.03;5028914;28;20210;-68
2022/04/02 04:53:52;;;;;;;0.20;0.20;;;1.70;99.90;;;1.51;nan;99929.13;5030049;28;20226;-68
2022/04/02 04:56:19;;;;;;;0.20;0.20;;;1.70;99.90;;;1.43;nan;99920.09;5030246;28;20221;-68
2022/04/02 04:58:46;;;;;;;0.20;0.20;;;1.60;99.90;;;1.52;nan;99930.81;5029723;28;20197;-68
2022/04/02 05:01:14;;;;;;;0.20;0.20;;;1.60;99.90;;;1.52;nan;99940.25;4993827;28;20191;-68
2022/04/02 05:03:41;;;;;;;0.20;0.20;;;1.70;99.90;;;1.50;nan;99945.47;5013581;28;20210;-68
2022/04/02 05:06:11;;;;;;;0.20;0.20;;;1.60;99.90;;;1.48;nan;99939.56;5012556;28;20733;-69
2022/04/02 05:08:38;;;;;;;0.20;0.20;;;1.60;99.90;;;1.46;nan;99951.66;5013203;28;20208;-69
2022/04/02 05:11:07;;;;;;;0.20;0.20;;;1.60;99.90;;;1.41;nan;99951.03;5012612;28;20315;-68
2022/04/02 05:13:34;;;;;;;0.20;0.20;;;1.60;99.90;;;1.45;nan;99949.97;5014008;28;20225;-69
2022/04/02 05:16:01;;;;;;;0.20;0.20;;;1.60;99.90;;;1.44;nan;99947.50;4997227;28;20218;-68
2022/04/02 05:18:28;;;;;;;0.20;0.20;;;1.60;99.90;;;1.35;nan;99964.16;5009003;28;20216;-69
2022/04/02 05:20:56;;;;;;;0.20;0.20;;;1.50;99.90;;;1.33;nan;99967.69;5029471;28;20198;-69
2022/04/02 05:23:23;;;;;;;0.30;0.30;;;1.50;99.90;;;1.45;nan;99967.97;4996902;28;20198;-69
2022/04/02 05:25:50;;;;;;;0.20;0.20;;;1.50;99.90;;;1.45;nan;99967.97;5008075;28;20729;-69
2022/04/02 05:28:17;;;;;;;0.30;0.30;;;1.60;99.90;;;1.43;nan;99962.06;5010871;28;20199;-69
2022/04/02 05:30:44;;;;;;;0.20;0.20;;;1.50;99.90;;;1.44;nan;99971.47;5012668;28;20201;-68
2022/04/02 05:33:11;;;;;;;0.20;0.20;;;1.50;99.90;;;1.39;nan;99965.69;5011869;28;20209;-68
2022/04/02 05:35:59;;;;;;;0.20;0.20;;;1.60;99.90;;;1.39;nan;99963.13;5015881;28;20230;-68
2022/04/02 05:38:27;;;;;;;0.20;0.20;;;1.60;99.90;;;1.41;nan;99979.31;5013611;28;20205;-68
2022/04/02 05:40:54;;;;;;;0.20;0.20;;;1.60;99.90;;;1.48;nan;99972.16;5030528;28;20605;-69
2022/04/02 05:43:21;;;;;;;0.20;0.20;;;1.60;99.90;;;1.37;nan;99982.91;5010449;28;20213;-69
2022/04/02 05:45:48;;;;;;;0.20;0.20;;;1.60;99.90;;;1.41;nan;99975.88;5012164;28;20229;-69
2022/04/02 05:48:17;;;;;;;0.20;0.20;;;1.60;99.90;;;1.45;nan;99988.53;4995894;28;20235;-69
2022/04/02 05:50:44;;;;;;;0.20;0.20;;;1.70;99.90;;;1.29;nan;99995.28;5008277;28;20210;-69
2022/04/02 05:53:11;;;;;;;0.20;0.20;;;1.50;99.90;;;1.35;nan;99989.88;5024958;28;20213;-69
2022/04/02 05:55:39;;;;;;;0.20;0.20;;;1.60;99.90;;;1.33;nan;100014.78;5011655;28;20241;-67
2022/04/02 05:58:06;;;;;;;0.20;0.20;;;1.50;99.90;;;1.40;nan;99993.06;4992736;28;20206;-68
2022/04/02 06:00:33;;;;;;;0.20;0.20;;;1.60;99.90;;;1.40;nan;100000.78;5012039;28;20574;-69
2022/04/02 06:03:03;;;;;;;0.20;0.20;;;1.60;99.90;;;1.42;nan;100009.25;5007878;28;20206;-70
2022/04/02 06:05:30;;;;;;;0.50;0.50;;;1.60;99.90;;;1.39;nan;100022.22;5027000;28;20222;-68
2022/04/02 06:07:57;;;;;;;0.20;0.20;;;1.60;99.90;;;1.47;nan;100033.00;5012328;28;20213;-68
2022/04/02 06:10:24;;;;;;;0.20;0.20;;;1.60;99.90;;;1.43;nan;100034.03;5011595;28;20210;-68
2022/04/02 06:12:51;;;;;;;0.20;0.20;;;1.60;99.90;;;1.56;nan;100029.19;5029349;28;20268;-69
2022/04/02 06:15:20;;;;;;;0.20;0.20;;;1.70;99.90;;;1.40;nan;100029.06;4996492;28;20241;-69
2022/04/02 06:17:47;;;;;;;0.20;0.20;;;1.70;99.90;;;1.43;nan;100046.06;5008159;28;20209;-70
2022/04/02 06:20:14;;;;;;;0.20;0.20;;;1.70;99.90;;;1.45;nan;100057.09;5008980;28;20584;-69
2022/04/02 06:22:42;;;;;;;0.20;0.20;;;1.60;99.90;;;1.58;nan;100042.00;5010644;28;20205;-69
2022/04/02 06:25:10;;;;;;;0.20;0.20;;;1.70;99.90;;;1.52;nan;100058.50;5010105;28;20786;-69
2022/04/02 06:27:48;;;;;;;0.20;0.20;;;1.70;99.90;;;1.49;nan;100051.75;5010163;28;20660;-69
2022/04/02 06:30:19;;;;;;;0.20;0.20;;;1.70;99.90;;;1.41;nan;100060.72;5009806;28;20578;-69
2022/04/02 06:32:52;;;;;;;0.20;0.20;;;1.60;99.90;;;1.41;nan;100076.13;4978868;28;20256;-69
2022/04/02 06:35:19;;;;;;;0.20;0.20;;;1.60;99.90;;;1.48;nan;100060.41;4992316;28;20254;-69
2022/04/02 06:37:48;;;;;;;0.20;0.20;;;1.60;99.90;;;1.41;nan;100061.56;5007951;28;20209;-69
2022/04/02 06:40:16;;;;;;;0.20;0.20;;;1.70;99.90;;;1.42;nan;100065.81;5008232;28;20202;-69
2022/04/02 06:42:43;;;;;;;0.20;0.20;;;1.70;99.90;;;1.32;nan;100077.38;5011500;28;20190;-69
2022/04/02 06:45:10;;;;;;;0.65;0.65;;;1.60;99.90;;;1.36;nan;100084.03;5008579;28;20289;-69
2022/04/02 06:47:38;;;;;;;0.20;0.20;;;1.60;99.90;;;1.35;nan;100084.13;5013697;28;20206;-69
2022/04/02 06:50:11;;;;;;;0.20;0.20;;;1.50;99.90;;;1.39;nan;100078.78;5013212;28;20237;-68
2022/04/02 06:52:39;;;;;;;0.20;0.20;;;1.60;99.90;;;1.39;nan;100104.47;5028272;28;20210;-68
2022/04/02 06:55:11;;;;;;;0.20;0.20;;;1.60;99.90;;;1.54;nan;100097.84;5027313;28;20214;-69
2022/04/02 06:57:48;;;;;;;0.20;0.20;;;1.70;99.90;;;1.46;nan;100079.34;4995876;28;20224;-69
2022/04/02 07:00:16;;;;;;;0.20;0.20;;;1.70;99.90;;;1.56;nan;100090.91;5037855;28;20205;-69
2022/04/02 07:02:43;;;;;;;0.20;0.20;;;1.70;99.90;;;1.51;nan;100109.09;4999322;28;20587;-68
2022/04/02 07:05:10;;;;;;;0.20;0.20;;;1.70;99.90;;;1.46;nan;100105.91;4992614;28;20211;-68
2022/04/02 07:07:37;;;;;;;0.20;0.20;;;1.70;99.90;;;1.51;nan;100114.22;5011696;28;20209;-68
2022/04/02 07:10:06;;;;;;;0.20;0.20;;;1.80;99.90;;;1.60;nan;100101.91;4977843;28;20570;-68
2022/04/02 07:12:35;;;;;;;0.20;0.20;;;1.80;99.90;;;1.49;nan;100110.91;5014418;28;20562;-68
2022/04/02 07:15:03;;;;;;;0.30;0.30;;;1.70;99.90;;;1.60;nan;100119.91;5014965;28;20619;-68
2022/04/02 07:17:31;;;;;;;0.20;0.20;;;1.80;99.90;;;1.58;nan;100122.50;5032049;28;20202;-69
2022/04/02 07:20:00;;;;;;;0.20;0.20;;;1.80;99.90;;;1.68;nan;100120.41;5036077;28;20674;-68
2022/04/02 07:22:27;;;;;;;0.20;0.20;;;1.80;99.90;;;1.60;nan;100117.34;5009760;28;20263;-68
2022/04/02 07:24:56;;;;;;;0.20;0.20;;;1.80;99.90;;;1.72;nan;100137.34;5013466;28;20208;-68
2022/04/02 07:27:28;;;;;;;0.20;0.20;;;1.90;99.90;;;1.65;nan;100118.78;5016577;28;20202;-68
2022/04/02 07:29:58;;;;;;;0.20;0.20;;;1.90;99.90;;;1.58;nan;100125.09;5007175;28;20206;-68
2022/04/02 07:32:25;;;;;;;0.20;0.20;;;1.90;99.90;;;1.67;nan;100129.84;5004793;28;20511;-68
2022/04/02 07:34:52;;;;;;;0.20;0.20;;;1.90;99.90;;;1.75;nan;100132.06;5005101;28;20225;-68
2022/04/02 07:37:41;;;;;;;0.20;0.20;;;1.90;99.90;;;1.67;nan;100136.72;5006356;28;20543;-68
2022/04/02 07:40:49;;;;;;;0.20;0.20;;;1.90;99.90;;;1.61;nan;100134.41;4991182;28;20248;-68
2022/04/02 07:43:45;;;;;;;0.20;0.20;;;1.90;99.90;;;1.82;nan;100143.75;4976994;28;20217;-68
2022/04/02 07:46:21;;;;;;;0.20;0.20;;;2.00;99.90;;;1.82;nan;100170.31;5009756;28;20233;-67
2022/04/02 07:48:49;;;;;;;0.20;0.20;;;2.00;99.90;;;1.88;nan;100154.63;5009137;28;20214;-68
2022/04/02 07:51:18;;;;;;;0.20;0.20;;;2.10;99.90;;;1.96;nan;100154.31;5014132;28;20243;-69
2022/04/02 07:53:48;;;;;;;0.20;0.20;;;2.20;99.90;;;1.95;nan;100150.03;5027883;28;20206;-68
2022/04/02 07:56:34;;;;;;;0.20;0.20;;;2.30;99.90;;;2.00;nan;100137.81;5029473;28;20225;-68
2022/04/02 07:59:07;;;;;;;0.20;0.20;;;2.20;99.90;;;2.07;nan;100152.06;5011227;28;20260;-67
2022/04/02 08:01:34;;;;;;;0.20;0.20;;;2.30;99.90;;;2.00;nan;100173.84;5032796;28;20208;-68
2022/04/02 08:04:05;;;;;;;0.20;0.20;;;2.30;99.90;;;1.86;nan;100164.16;5033772;28;20193;-68
2022/04/02 08:06:33;;;;;;;0.20;0.20;;;2.30;99.90;;;2.00;nan;100168.69;5051542;28;20217;-68
2022/04/02 08:09:00;;;;;;;0.20;0.20;;;2.30;99.90;;;2.03;nan;100178.84;5032798;28;20579;-68
2022/04/02 08:11:27;;;;;;;0.20;0.20;;;2.30;99.90;;;2.09;nan;100178.56;4994048;28;20616;-68
2022/04/02 08:13:58;;;;;;;0.20;0.20;;;2.40;99.90;;;2.06;nan;100173.56;5028403;28;20198;-68
2022/04/02 08:16:26;;;;;;;0.20;0.20;;;2.40;99.90;;;2.33;nan;100175.75;5027956;28;20226;-68
2022/04/02 08:18:56;;;;;;;0.20;0.20;;;2.50;99.90;;;2.47;nan;100198.25;5010258;28;20201;-68
2022/04/02 08:21:23;;;;;;;0.20;0.20;;;2.70;99.90;;;2.42;nan;100184.78;5012412;28;20213;-67
2022/04/02 08:23:50;;;;;;;0.20;0.20;;;2.70;99.90;;;2.42;nan;100191.66;4998538;28;20264;-66
2022/04/02 08:26:34;;;;;;;0.20;0.20;;;2.70;99.90;;;2.44;nan;100188.13;5002162;28;20306;-66
2022/04/02 08:29:35;;;;;;;0.20;0.20;;;2.70;99.90;;;2.45;nan;100205.22;4985522;28;20210;-67
2022/04/02 08:32:37;;;;;;;0.20;0.20;;;2.60;99.90;;;2.44;nan;100193.28;5011828;28;20202;-66
2022/04/02 08:35:10;;;;;;;0.20;0.20;;;2.70;99.90;;;2.30;nan;100208.47;5010922;28;20228;-66
2022/04/02 08:37:55;;;;;;;0.20;0.20;;;2.70;99.90;;;2.57;nan;100207.25;4995094;28;20194;-65
2022/04/02 08:40:44;;;;;;;0.30;0.20;;;2.80;99.90;;;2.59;nan;100220.91;5009615;28;20228;-66
2022/04/02 08:43:53;;;;;;;0.20;0.20;;;2.90;99.90;;;2.56;nan;100215.88;5008799;28;20213;-66
2022/04/02 08:47:00;;;;;;;0.20;0.20;;;2.80;99.90;;;2.69;nan;100222.13;5008298;28;20237;-67
2022/04/02 08:49:36;;;;;;;0.20;0.20;;;2.90;99.90;;;2.53;nan;100220.34;5044076;28;20255;-66
2022/04/02 08:52:19;;;;;;;0.20;0.20;;;2.90;99.90;;;2.45;nan;100228.41;5026517;28;20205;-66
2022/04/02 08:55:14;;;;;;;0.20;0.20;;;2.70;99.90;;;2.41;nan;100252.63;5013685;28;20222;-67
2022/04/02 08:57:53;;;;;;;0.20;0.20;;;2.70;99.90;;;2.37;nan;100238.22;5013591;28;20316;-66
2022/04/02 09:00:26;;;;;;;0.20;0.20;;;2.70;99.90;;;2.31;nan;100244.47;5030518;28;20568;-66
2022/04/02 09:03:35;;;;;;;0.20;0.20;;;2.60;99.90;;;2.35;nan;100246.00;5010255;28;20209;-67
2022/04/02 09:06:40;;;;;;;0.20;0.20;;;2.70;99.90;;;2.13;nan;100249.59;5029818;28;20717;-66
2022/04/02 09:09:15;;;;;;;0.35;0.35;;;2.50;99.90;;;2.46;nan;100249.84;5026608;28;20197;-66
2022/04/02 09:12:08;;;;;;;0.20;0.20;;;2.70;99.90;;;2.48;nan;100260.91;5005020;28;20210;-67
2022/04/02 09:15:07;;;;;;;0.20;0.20;;;2.70;99.90;;;2.52;nan;100265.84;5030744;28;20232;-67
2022/04/02 09:18:02;;;;;;;0.20;0.20;;;2.80;99.90;;;2.29;nan;100258.31;5025444;28;20575;-68
2022/04/02 09:20:58;;;;;;;0.20;0.20;;;2.70;99.90;;;2.42;nan;100277.47;5012293;28;20207;-67
2022/04/02 09:24:38;;;;;;;0.20;0.20;;;2.70;99.90;;;2.33;nan;100265.84;4994395;28;20198;-67
2022/04/02 09:27:32;;;;;;;0.20;0.20;;;2.60;99.90;;;2.44;nan;100296.25;4966747;28;20288;-68
2022/04/02 09:30:37;;;;;;;0.20;0.20;;;2.70;99.90;;;2.49;nan;100283.19;5036739;28;20194;-66
2022/04/02 09:33:54;;;;;;;0.20;0.20;;;2.70;99.90;;;2.67;nan;100284.94;5039077;28;20229;-67
2022/04/02 09:36:33;;;;;;;0.20;0.20;;;2.90;99.90;;;2.57;nan;100275.94;5024742;28;20239;-67
2022/04/02 09:39:12;;;;;;;0.20;0.20;;;3.00;99.90;;;2.76;nan;100300.81;5042759;28;20201;-68
2022/04/02 09:41:56;;;;;;;0.20;0.20;;;3.10;99.90;;;2.51;nan;100295.09;5025989;28;20650;-67
2022/04/02 09:44:56;;;;;;;0.20;0.20;;;2.90;99.90;;;2.77;nan;100294.75;4992193;28;20207;-68
2022/04/02 09:47:49;;;;;;;0.20;0.20;;;3.10;99.90;;;2.85;nan;100279.81;5019861;28;20237;-68
2022/04/02 09:50:28;;;;;;;0.20;0.20;;;3.20;99.90;;;2.93;nan;100294.91;4991235;28;20217;-68
2022/04/02 09:53:03;;;;;;;0.20;0.20;;;3.20;99.90;;;3.08;nan;100292.44;5006098;28;20206;-68
2022/04/02 09:56:12;;;;;;;0.20;0.20;;;3.40;99.90;;;3.33;nan;100291.28;5012967;28;20226;-67
2022/04/02 09:58:44;;;;;;;0.20;0.20;;;3.60;99.90;;;3.23;nan;100293.47;5030836;28;20198;-67
2022/04/02 10:01:26;;;;;;;0.20;0.20;;;3.60;99.90;;;3.13;nan;100300.78;5029881;28;20583;-68
2022/04/02 10:04:05;;;;;;;0.20;0.20;;;3.60;99.90;;;3.47;nan;100314.69;4996247;28;20258;-68
2022/04/02 10:06:40;;;;;;;0.20;0.20;;;3.80;99.90;;;3.39;nan;100306.44;5012587;28;20718;-66
2022/04/02 10:09:15;;;;;;;0.20;0.20;;;3.90;99.90;;;3.51;nan;100318.78;5016782;28;20201;-68
2022/04/02 10:11:54;;;;;;;0.20;0.20;;;3.90;99.90;;;3.62;nan;100317.34;5023491;28;20210;-68
2022/04/02 10:14:27;;;;;;;0.20;0.20;;;4.10;99.90;;;3.74;nan;100329.66;5043743;28;20201;-67
2022/04/02 10:17:03;;;;;;;0.20;0.20;;;4.20;99.90;;;3.71;nan;100318.63;5032921;28;20240;-68
2022/04/02 10:19:32;;;;;;;0.20;0.20;;;4.20;99.90;;;3.56;nan;100309.06;5017056;28;20209;-68
2022/04/02 10:22:07;;;;;;;0.20;0.20;;;4.00;99.90;;;3.41;nan;100325.31;5020063;28;20210;-68
2022/04/02 10:24:49;;;;;;;0.20;0.20;;;3.80;99.90;;;3.44;nan;100310.50;5052773;28;20212;-66
2022/04/02 10:27:34;;;;;;;0.20;0.20;;;3.70;99.90;;;3.61;nan;100327.75;5016671;28;20730;-67
2022/04/02 10:30:01;;;;;;;0.20;0.20;;;3.90;99.90;;;3.69;nan;100335.94;4997564;28;20229;-68
2022/04/02 10:33:26;;;;;;;0.20;0.20;;;4.00;99.90;;;3.76;nan;100311.53;5014787;28;20210;-68
2022/04/02 10:35:53;;;;;;;0.20;0.20;;;4.10;99.90;;;3.62;nan;100327.66;5013906;28;20226;-68
2022/04/02 10:38:36;;;;;;;0.20;0.20;;;4.00;99.90;;;3.75;nan;100321.00;4997361;28;20231;-68
2022/04/02 10:41:09;;;;;;;0.20;0.20;;;4.10;99.90;;;3.76;nan;100327.84;5013465;28;20571;-68
2022/04/02 10:44:09;;;;;;;0.30;0.30;;;4.20;99.90;;;3.87;nan;100317.00;5016922;28;20206;-68
2022/04/02 10:46:41;;;;;;;0.20;0.20;;;4.40;99.90;;;4.04;nan;100329.06;5015764;28;20232;-67
2022/04/02 10:49:17;;;;;;;0.20;0.20;;;4.50;99.90;;;4.23;nan;100334.97;5016729;28;20675;-68
2022/04/02 10:51:53;;;;;;;0.20;0.20;;;4.50;99.90;;;4.18;nan;100345.53;5001285;28;20690;-67
2022/04/02 10:54:28;;;;;;;0.20;0.20;;;4.60;99.90;;;4.31;nan;100340.56;5016857;28;20201;-67
2022/04/02 10:56:56;;;;;;;0.20;0.20;;;4.70;99.90;;;4.24;nan;100339.22;5000258;28;20237;-66
2022/04/02 10:59:30;;;;;;;0.20;0.20;;;4.60;99.90;;;4.26;nan;100345.97;5016477;28;20206;-67
2022/04/02 11:02:00;;;;;;;0.20;0.20;;;4.70;99.90;;;4.59;nan;100341.69;5033904;28;20206;-66
2022/04/02 11:04:48;;;;;;;0.20;0.20;;;4.90;99.90;;;4.58;nan;100345.16;5016422;28;20213;-66
2022/04/02 11:07:30;;;;;;;0.20;0.20;;;5.00;99.90;;;4.23;nan;100353.03;5034119;28;20230;-67
2022/04/02 11:10:00;;;;;;;0.30;0.30;;;4.50;99.90;;;4.20;nan;100351.44;5015988;28;20206;-67